createdAt,value
2023-03-29T00:01:42.749Z,100.00
2023-03-29T00:04:10.575Z,100.00
2023-03-29T00:06:38.091Z,100.00
2023-03-29T00:09:09.821Z,100.00
2023-03-29T00:11:37.025Z,100.00
2023-03-29T00:14:04.121Z,100.00
2023-03-29T00:20:24.123Z,100.00
2023-03-29T00:22:51.322Z,100.00
2023-03-29T00:25:18.340Z,100.00
2023-03-29T00:27:45.762Z,100.00
2023-03-29T00:30:12.966Z,100.00
2023-03-29T00:39:24.665Z,100.00
2023-03-29T00:41:51.802Z,100.00
2023-03-29T00:44:37.524Z,100.00
2023-03-29T00:47:04.627Z,100.00
2023-03-29T00:49:31.523Z,100.00
2023-03-29T00:51:58.528Z,100.00
2023-03-29T00:54:26.410Z,100.00
2023-03-29T00:56:53.843Z,100.00
2023-03-29T00:59:24.692Z,100.00
2023-03-29T01:02:00.076Z,100.00
2023-03-29T01:04:37.151Z,100.00
2023-03-29T01:07:41.830Z,100.00
2023-03-29T01:10:09.720Z,100.00
2023-03-29T01:12:40.484Z,100.00
2023-03-29T01:15:11.968Z,100.00
2023-03-29T01:18:06.557Z,100.00
2023-03-29T01:20:49.235Z,100.00
2023-03-29T01:23:16.237Z,100.00
2023-03-29T01:25:54.249Z,100.00
2023-03-29T01:28:23.791Z,100.00
2023-03-29T01:31:12.168Z,100.00
2023-03-29T01:33:48.879Z,100.00
2023-03-29T01:36:23.618Z,100.00
2023-03-29T01:39:05.163Z,100.00
2023-03-29T01:41:39.953Z,100.00
2023-03-29T01:44:10.028Z,100.00
2023-03-29T01:46:44.962Z,100.00
2023-03-29T01:49:19.621Z,100.00
2023-03-29T01:51:53.519Z,100.00
2023-03-29T01:54:26.531Z,100.00
2023-03-29T01:56:57.498Z,100.00
2023-03-29T01:59:29.130Z,100.00
2023-03-29T02:02:02.029Z,100.00
2023-03-29T02:04:31.623Z,100.00
2023-03-29T02:07:00.873Z,100.00
2023-03-29T02:09:29.713Z,100.00
2023-03-29T02:11:59.844Z,100.00
2023-03-29T02:14:26.991Z,100.00
2023-03-29T02:16:54.039Z,100.00
2023-03-29T02:19:24.262Z,100.00
2023-03-29T02:22:04.233Z,100.00
2023-03-29T02:24:35.032Z,100.00
2023-03-29T02:27:02.684Z,100.00
2023-03-29T02:29:29.952Z,100.00
2023-03-29T02:32:15.320Z,100.00
2023-03-29T02:34:47.910Z,100.00
2023-03-29T02:37:19.738Z,100.00
2023-03-29T02:39:48.791Z,100.00
2023-03-29T02:42:17.981Z,100.00
2023-03-29T02:44:45.705Z,100.00
2023-03-29T02:47:18.790Z,100.00
2023-03-29T02:49:45.866Z,100.00
2023-03-29T02:52:16.277Z,100.00
2023-03-29T02:54:46.245Z,100.00
2023-03-29T02:57:13.675Z,100.00
2023-03-29T02:59:44.216Z,100.00
2023-03-29T03:02:15.337Z,100.00
2023-03-29T03:05:35.469Z,100.00
2023-03-29T03:08:03.182Z,100.00
2023-03-29T03:10:30.416Z,100.00
2023-03-29T03:16:53.089Z,100.00
2023-03-29T03:19:23.664Z,100.00
2023-03-29T03:21:51.919Z,100.00
2023-03-29T03:24:18.965Z,100.00
2023-03-29T03:26:46.735Z,100.00
2023-03-29T03:29:15.958Z,100.00
2023-03-29T03:31:55.927Z,100.00
2023-03-29T03:35:01.583Z,100.00
2023-03-29T03:37:47.505Z,100.00
2023-03-29T03:40:17.552Z,100.00
2023-03-29T03:42:44.919Z,100.00
2023-03-29T03:45:12.392Z,100.00
2023-03-29T03:48:02.481Z,100.00
2023-03-29T03:50:48.012Z,100.00
2023-03-29T03:53:15.305Z,100.00
2023-03-29T03:56:14.295Z,100.00
2023-03-29T03:58:59.876Z,100.00
2023-03-29T04:01:28.573Z,100.00
2023-03-29T04:04:19.953Z,100.00
2023-03-29T04:11:00.148Z,100.00
2023-03-29T04:13:35.043Z,100.00
2023-03-29T04:16:28.750Z,100.00
2023-03-29T04:22:54.723Z,100.00
2023-03-29T04:25:22.650Z,100.00
2023-03-29T04:28:11.103Z,100.00
2023-03-29T04:30:48.400Z,100.00
2023-03-29T04:33:32.532Z,100.00
2023-03-29T04:42:52.013Z,100.00
2023-03-29T04:45:20.306Z,100.00
2023-03-29T04:48:09.743Z,100.00
2023-03-29T04:50:48.263Z,100.00
2023-03-29T04:53:19.076Z,100.00
2023-03-29T04:55:48.227Z,100.00
2023-03-29T04:58:26.124Z,100.00
2023-03-29T05:04:50.068Z,100.00
2023-03-29T05:07:21.704Z,100.00
2023-03-29T05:09:50.096Z,100.00
2023-03-29T05:12:18.609Z,100.00
2023-03-29T05:15:14.457Z,100.00
2023-03-29T05:21:00.896Z,100.00
2023-03-29T05:23:36.191Z,100.00
2023-03-29T05:26:23.585Z,100.00
2023-03-29T05:29:01.070Z,100.00
2023-03-29T05:31:33.047Z,100.00
2023-03-29T05:34:00.783Z,100.00
2023-03-29T05:36:29.795Z,100.00
2023-03-29T05:38:57.357Z,100.00
2023-03-29T05:41:28.709Z,100.00
2023-03-29T05:44:25.064Z,100.00
2023-03-29T05:46:58.295Z,100.00
2023-03-29T05:49:27.863Z,100.00
2023-03-29T05:52:25.258Z,100.00
2023-03-29T05:54:57.912Z,100.00
2023-03-29T05:57:27.114Z,100.00
2023-03-29T05:59:55.114Z,100.00
2023-03-29T06:02:23.823Z,100.00
2023-03-29T06:04:54.588Z,100.00
2023-03-29T06:07:25.244Z,100.00
2023-03-29T06:10:18.777Z,100.00
2023-03-29T06:12:50.443Z,100.00
2023-03-29T06:15:21.635Z,100.00
2023-03-29T06:17:58.355Z,100.00
2023-03-29T06:20:25.422Z,100.00
2023-03-29T06:22:58.677Z,100.00
2023-03-29T06:25:26.280Z,100.00
2023-03-29T06:27:54.523Z,100.00
2023-03-29T06:30:21.486Z,100.00
2023-03-29T06:32:51.919Z,100.00
2023-03-29T06:35:57.829Z,100.00
2023-03-29T06:38:28.789Z,100.00
2023-03-29T06:41:04.495Z,100.00
2023-03-29T06:44:04.367Z,100.00
2023-03-29T06:46:35.896Z,100.00
2023-03-29T06:52:43.736Z,100.00
2023-03-29T06:55:12.217Z,100.00
2023-03-29T06:57:40.261Z,100.00
2023-03-29T07:00:16.097Z,100.00
2023-03-29T07:03:20.244Z,100.00
2023-03-29T07:05:52.365Z,100.00
2023-03-29T07:08:22.733Z,100.00
2023-03-29T07:10:56.167Z,100.00
2023-03-29T07:13:29.184Z,100.00
2023-03-29T07:15:58.745Z,100.00
2023-03-29T07:18:45.723Z,100.00
2023-03-29T07:21:21.351Z,100.00
2023-03-29T07:23:48.506Z,100.00
2023-03-29T07:29:50.229Z,100.00
2023-03-29T07:32:18.853Z,100.00
2023-03-29T07:34:48.514Z,100.00
2023-03-29T07:37:26.922Z,100.00
2023-03-29T07:39:56.923Z,100.00
2023-03-29T07:42:37.116Z,100.00
2023-03-29T07:45:05.218Z,100.00
2023-03-29T07:47:38.719Z,100.00
2023-03-29T07:50:07.643Z,100.00
2023-03-29T07:52:54.529Z,100.00
2023-03-29T07:55:22.358Z,100.00
2023-03-29T07:57:57.427Z,100.00
2023-03-29T08:00:25.219Z,100.00
2023-03-29T08:03:13.446Z,100.00
2023-03-29T08:09:29.335Z,100.00
2023-03-29T08:11:57.704Z,100.00
2023-03-29T08:14:31.535Z,100.00
2023-03-29T08:17:11.430Z,100.00
2023-03-29T08:19:50.654Z,100.00
2023-03-29T08:22:24.790Z,100.00
2023-03-29T08:25:12.646Z,100.00
2023-03-29T08:27:45.207Z,100.00
2023-03-29T08:30:15.914Z,100.00
2023-03-29T08:32:44.883Z,100.00
2023-03-29T08:35:13.399Z,100.00
2023-03-29T08:37:51.701Z,100.00
2023-03-29T08:40:31.192Z,100.00
2023-03-29T08:43:17.226Z,100.00
2023-03-29T08:46:34.288Z,100.00
2023-03-29T08:49:13.535Z,100.00
2023-03-29T08:51:45.622Z,100.00
2023-03-29T08:54:16.011Z,100.00
2023-03-29T08:57:38.529Z,100.00
2023-03-29T09:00:35.087Z,100.00
2023-03-29T09:03:03.264Z,100.00
2023-03-29T09:05:34.676Z,100.00
2023-03-29T09:08:13.781Z,100.00
2023-03-29T09:10:44.516Z,100.00
2023-03-29T09:13:21.126Z,100.00
2023-03-29T09:15:52.919Z,100.00
2023-03-29T09:18:56.433Z,100.00
2023-03-29T09:25:25.965Z,100.00
2023-03-29T09:28:06.673Z,100.00
2023-03-29T09:30:48.744Z,100.00
2023-03-29T09:40:38.696Z,100.00
2023-03-29T09:43:15.748Z,100.00
2023-03-29T09:45:44.034Z,100.00
2023-03-29T09:48:15.154Z,100.00
2023-03-29T09:50:48.558Z,100.00
2023-03-29T09:56:56.332Z,100.00
2023-03-29T09:59:43.026Z,100.00
2023-03-29T10:02:13.075Z,100.00
2023-03-29T10:04:42.306Z,100.00
2023-03-29T10:07:17.047Z,100.00
2023-03-29T10:16:56.195Z,100.00
2023-03-29T10:19:35.145Z,100.00
2023-03-29T10:22:04.731Z,100.00
2023-03-29T10:24:31.892Z,100.00
2023-03-29T10:27:02.026Z,100.00
2023-03-29T10:29:36.531Z,100.00
2023-03-29T10:32:13.942Z,100.00
2023-03-29T10:34:41.743Z,100.00
2023-03-29T10:37:12.080Z,100.00
2023-03-29T10:39:40.011Z,100.00
2023-03-29T10:42:08.744Z,100.00
2023-03-29T10:44:36.887Z,100.00
2023-03-29T10:47:16.239Z,100.00
2023-03-29T10:49:45.001Z,100.00
2023-03-29T10:52:13.984Z,100.00
2023-03-29T10:54:41.049Z,100.00
2023-03-29T10:57:14.003Z,100.00
2023-03-29T10:59:41.286Z,100.00
2023-03-29T11:02:14.594Z,100.00
2023-03-29T11:04:44.716Z,100.00
2023-03-29T11:07:30.036Z,100.00
2023-03-29T11:10:18.650Z,100.00
2023-03-29T11:12:48.716Z,100.00
2023-03-29T11:15:15.819Z,100.00
2023-03-29T11:17:42.870Z,100.00
2023-03-29T11:20:28.643Z,100.00
2023-03-29T11:23:16.699Z,100.00
2023-03-29T11:25:47.497Z,100.00
2023-03-29T11:28:26.857Z,100.00
2023-03-29T11:31:03.512Z,100.00
2023-03-29T11:33:37.927Z,100.00
2023-03-29T11:36:05.005Z,100.00
2023-03-29T11:38:38.511Z,100.00
2023-03-29T11:41:14.056Z,100.00
2023-03-29T11:43:43.144Z,100.00
2023-03-29T11:46:26.543Z,100.00
2023-03-29T11:49:00.585Z,100.00
2023-03-29T11:51:32.869Z,100.00
2023-03-29T11:54:03.620Z,100.00
2023-03-29T11:56:39.924Z,100.00
2023-03-29T11:59:13.328Z,100.00
2023-03-29T12:01:45.251Z,100.00
2023-03-29T12:04:23.090Z,100.00
2023-03-29T12:06:57.383Z,100.00
2023-03-29T12:09:24.516Z,100.00
2023-03-29T12:11:51.558Z,100.00
2023-03-29T12:14:25.469Z,100.00
2023-03-29T12:21:01.788Z,100.00
2023-03-29T12:23:32.200Z,100.00
2023-03-29T12:26:24.832Z,100.00
2023-03-29T12:29:10.574Z,100.00
2023-03-29T12:32:08.680Z,100.00
2023-03-29T12:34:43.916Z,100.00
2023-03-29T12:37:58.754Z,100.00
2023-03-29T12:40:46.245Z,100.00
2023-03-29T12:43:39.323Z,100.00
2023-03-29T12:46:26.820Z,100.00
2023-03-29T12:48:58.202Z,100.00
2023-03-29T12:51:33.470Z,100.00
2023-03-29T12:54:20.940Z,100.00
2023-03-29T12:56:56.840Z,100.00
2023-03-29T12:59:25.407Z,100.00
2023-03-29T13:01:57.943Z,100.00
2023-03-29T13:12:05.452Z,100.00
2023-03-29T13:14:35.321Z,100.00
2023-03-29T13:17:22.652Z,100.00
2023-03-29T13:20:20.739Z,100.00
2023-03-29T13:26:44.925Z,100.00
2023-03-29T13:29:30.239Z,100.00
2023-03-29T13:32:02.134Z,100.00
2023-03-29T13:34:29.331Z,100.00
2023-03-29T13:37:15.255Z,100.00
2023-03-29T13:43:20.513Z,91.00
2023-03-29T13:45:56.663Z,90.75
2023-03-29T13:48:28.723Z,100.00
2023-03-29T13:50:57.244Z,78.42
2023-03-29T13:53:43.678Z,70.93
2023-03-29T13:56:15.705Z,77.13
2023-03-29T13:58:48.277Z,63.27
2023-03-29T14:01:22.615Z,67.55
2023-03-29T14:03:55.360Z,54.45
2023-03-29T14:06:26.974Z,53.84
2023-03-29T14:08:58.549Z,50.48
2023-03-29T14:11:28.585Z,51.27
2023-03-29T14:13:59.865Z,48.23
2023-03-29T14:16:28.606Z,49.83
2023-03-29T14:18:58.757Z,47.91
2023-03-29T14:21:26.333Z,42.24
2023-03-29T14:24:00.144Z,44.00
2023-03-29T14:26:31.475Z,43.95
2023-03-29T14:29:01.429Z,46.49
2023-03-29T14:31:33.399Z,49.00
2023-03-29T14:34:01.520Z,47.36
2023-03-29T14:36:30.056Z,45.35
2023-03-29T14:38:59.842Z,47.31
2023-03-29T14:41:34.951Z,54.02
2023-03-29T14:44:03.631Z,39.87
2023-03-29T14:46:34.864Z,43.51
2023-03-29T14:49:02.526Z,43.21
2023-03-29T14:51:31.292Z,44.02
2023-03-29T14:53:59.329Z,44.62
2023-03-29T14:56:27.328Z,41.79
2023-03-29T14:58:55.955Z,41.84
2023-03-29T15:01:24.997Z,43.51
2023-03-29T15:03:56.893Z,43.34
2023-03-29T15:06:25.064Z,43.71
2023-03-29T15:09:04.325Z,40.68
2023-03-29T15:11:34.502Z,44.05
2023-03-29T15:14:05.816Z,43.36
2023-03-29T15:16:33.783Z,41.38
2023-03-29T15:19:02.208Z,44.40
2023-03-29T15:21:32.252Z,47.17
2023-03-29T15:24:00.409Z,49.87
2023-03-29T15:26:31.269Z,38.40
2023-03-29T15:29:12.863Z,40.65
2023-03-29T15:31:42.416Z,45.61
2023-03-29T15:34:13.201Z,47.05
2023-03-29T15:36:45.449Z,45.33
2023-03-29T15:39:17.412Z,43.07
2023-03-29T15:41:45.303Z,46.18
2023-03-29T15:44:15.506Z,47.40
2023-03-29T15:46:42.700Z,42.16
2023-03-29T15:49:13.542Z,42.02
2023-03-29T15:51:41.187Z,41.69
2023-03-29T15:54:09.482Z,44.96
2023-03-29T15:56:43.861Z,43.20
2023-03-29T15:59:12.067Z,43.80
2023-03-29T16:01:39.757Z,48.88
2023-03-29T16:04:08.055Z,45.82
2023-03-29T16:06:35.177Z,45.38
2023-03-29T16:09:02.529Z,41.49
2023-03-29T16:11:29.674Z,39.22
2023-03-29T16:13:57.233Z,39.14
2023-03-29T16:16:28.794Z,41.57
2023-03-29T16:18:56.233Z,42.57
2023-03-29T16:21:27.583Z,46.50
2023-03-29T16:23:54.992Z,46.90
2023-03-29T16:26:22.535Z,47.74
2023-03-29T16:28:49.917Z,48.10
2023-03-29T16:31:17.160Z,48.49
2023-03-29T16:33:44.354Z,51.52
2023-03-29T16:36:11.861Z,46.69
2023-03-29T16:38:38.996Z,49.25
2023-03-29T16:41:07.456Z,50.16
2023-03-29T16:43:35.574Z,54.27
2023-03-29T16:46:02.868Z,57.70
2023-03-29T16:48:30.040Z,55.06
2023-03-29T16:50:57.196Z,55.35
2023-03-29T16:53:24.208Z,47.67
2023-03-29T16:55:51.212Z,48.48
2023-03-29T16:58:18.845Z,47.45
2023-03-29T17:00:48.161Z,51.14
2023-03-29T17:03:16.492Z,52.39
2023-03-29T17:05:47.316Z,52.76
2023-03-29T17:08:14.316Z,51.58
2023-03-29T17:10:41.735Z,48.74
2023-03-29T17:13:09.750Z,50.54
2023-03-29T17:15:39.695Z,53.21
2023-03-29T17:18:10.741Z,55.71
2023-03-29T17:20:41.223Z,56.96
2023-03-29T17:23:09.127Z,58.32
2023-03-29T17:25:36.560Z,59.53
2023-03-29T17:28:03.695Z,66.20
2023-03-29T17:30:30.846Z,71.27
2023-03-29T17:32:57.826Z,76.80
2023-03-29T17:35:24.919Z,77.49
2023-03-29T17:37:51.922Z,77.49
2023-03-29T17:40:19.120Z,72.83
2023-03-29T17:42:48.058Z,91.24
2023-03-29T17:45:15.910Z,92.10
2023-03-29T17:47:43.098Z,100.00
2023-03-29T17:50:13.314Z,100.00
2023-03-29T17:52:46.665Z,100.00
2023-03-29T17:55:14.295Z,86.27
2023-03-29T17:57:42.842Z,81.44
2023-03-29T18:00:13.124Z,82.06
2023-03-29T18:02:44.266Z,100.00
2023-03-29T18:05:11.798Z,100.00
2023-03-29T18:07:38.885Z,100.00
2023-03-29T18:10:06.734Z,100.00
2023-03-29T18:12:37.906Z,100.00
2023-03-29T18:15:05.378Z,100.00
2023-03-29T18:17:32.417Z,100.00
2023-03-29T18:19:59.508Z,100.00
2023-03-29T18:22:26.551Z,100.00
2023-03-29T18:24:55.103Z,100.00
2023-03-29T18:27:22.134Z,100.00
2023-03-29T18:29:49.357Z,100.00
2023-03-29T18:32:16.620Z,100.00
2023-03-29T18:34:43.833Z,100.00
2023-03-29T18:37:15.165Z,100.00
2023-03-29T18:39:42.238Z,100.00
2023-03-29T18:42:11.638Z,100.00
2023-03-29T18:44:40.525Z,100.00
2023-03-29T18:47:07.590Z,100.00
2023-03-29T18:49:34.775Z,100.00
2023-03-29T18:52:02.347Z,100.00
2023-03-29T18:54:29.438Z,100.00
2023-03-29T19:01:05.490Z,100.00
2023-03-29T19:03:33.460Z,100.00
2023-03-29T19:06:02.086Z,100.00
2023-03-29T19:08:29.620Z,100.00
2023-03-29T19:11:04.504Z,100.00
2023-03-29T19:13:31.692Z,100.00
2023-03-29T19:15:58.784Z,100.00
2023-03-29T19:18:26.501Z,100.00
2023-03-29T19:21:03.095Z,100.00
2023-03-29T19:23:30.705Z,100.00
2023-03-29T19:25:58.700Z,100.00
2023-03-29T19:28:26.178Z,100.00
2023-03-29T19:30:53.680Z,100.00
2023-03-29T19:33:21.417Z,100.00
2023-03-29T19:35:50.672Z,100.00
2023-03-29T19:38:26.424Z,100.00
2023-03-29T19:40:58.055Z,100.00
2023-03-29T19:43:26.214Z,100.00
2023-03-29T19:45:53.832Z,100.00
2023-03-29T19:48:24.344Z,100.00
2023-03-29T19:50:52.570Z,100.00
2023-03-29T19:53:19.516Z,100.00
2023-03-29T19:55:46.622Z,100.00
2023-03-29T19:58:13.859Z,100.00
2023-03-29T20:00:41.987Z,100.00
2023-03-29T20:03:14.107Z,100.00
2023-03-29T20:05:41.852Z,100.00
2023-03-29T20:08:09.126Z,100.00
2023-03-29T20:10:36.609Z,100.00
2023-03-29T20:13:05.860Z,100.00
2023-03-29T20:15:32.981Z,100.00
2023-03-29T20:18:00.628Z,100.00
2023-03-29T20:20:31.776Z,100.00
2023-03-29T20:23:04.701Z,100.00
2023-03-29T20:25:34.654Z,100.00
2023-03-29T20:28:01.668Z,100.00
2023-03-29T20:30:28.971Z,100.00
2023-03-29T20:32:56.305Z,100.00
2023-03-29T20:35:23.481Z,100.00
2023-03-29T20:37:53.764Z,100.00
2023-03-29T20:40:36.687Z,100.00
2023-03-29T20:43:03.980Z,100.00
2023-03-29T20:45:35.163Z,100.00
2023-03-29T20:48:09.990Z,100.00
2023-03-29T20:50:40.581Z,100.00
2023-03-29T20:53:08.047Z,100.00
2023-03-29T20:55:39.137Z,100.00
2023-03-29T20:58:06.552Z,100.00
2023-03-29T21:00:39.163Z,100.00
2023-03-29T21:03:09.120Z,100.00
2023-03-29T21:05:39.181Z,100.00
2023-03-29T21:08:09.757Z,100.00
2023-03-29T21:10:38.139Z,100.00
2023-03-29T21:13:06.372Z,100.00
2023-03-29T21:15:33.947Z,100.00
2023-03-29T21:18:01.027Z,100.00
2023-03-29T21:20:36.553Z,100.00
2023-03-29T21:23:04.156Z,100.00
2023-03-29T21:25:32.205Z,100.00
2023-03-29T21:28:00.049Z,100.00
2023-03-29T21:30:29.430Z,100.00
2023-03-29T21:32:57.783Z,100.00
2023-03-29T21:35:26.225Z,100.00
2023-03-29T21:37:54.082Z,100.00
2023-03-29T21:40:25.168Z,100.00
2023-03-29T21:42:59.008Z,100.00
2023-03-29T21:45:27.079Z,100.00
2023-03-29T21:47:54.864Z,100.00
2023-03-29T21:50:22.394Z,100.00
2023-03-29T21:52:49.942Z,100.00
2023-03-29T21:55:17.128Z,100.00
2023-03-29T21:57:44.159Z,100.00
2023-03-29T22:00:13.187Z,100.00
2023-03-29T22:02:41.616Z,100.00
2023-03-29T22:05:09.710Z,100.00
2023-03-29T22:07:39.138Z,100.00
2023-03-29T22:10:08.808Z,100.00
2023-03-29T22:12:37.939Z,100.00
2023-03-29T22:15:06.996Z,100.00
2023-03-29T22:17:36.805Z,100.00
2023-03-29T22:20:14.873Z,100.00
2023-03-29T22:22:46.736Z,100.00
2023-03-29T22:25:27.571Z,100.00
2023-03-29T22:28:06.980Z,100.00
2023-03-29T22:30:36.527Z,100.00
2023-03-29T22:33:04.787Z,100.00
2023-03-29T22:35:33.913Z,100.00
2023-03-29T22:38:02.125Z,100.00
2023-03-29T22:40:31.081Z,100.00
2023-03-29T22:42:58.125Z,100.00
2023-03-29T22:45:25.196Z,100.00
2023-03-29T22:47:52.392Z,100.00
2023-03-29T22:50:19.445Z,100.00
2023-03-29T22:52:46.666Z,100.00
2023-03-29T22:55:13.889Z,100.00
2023-03-29T22:57:41.016Z,100.00
2023-03-29T23:00:09.504Z,100.00
2023-03-29T23:02:37.149Z,100.00
2023-03-29T23:05:04.339Z,100.00
2023-03-29T23:07:31.257Z,100.00
2023-03-29T23:09:58.408Z,100.00
2023-03-29T23:12:25.538Z,100.00
2023-03-29T23:14:53.191Z,100.00
2023-03-29T23:17:20.764Z,100.00
2023-03-29T23:19:48.194Z,100.00
2023-03-29T23:22:15.241Z,100.00
2023-03-29T23:24:43.841Z,100.00
2023-03-29T23:27:11.343Z,100.00
2023-03-29T23:29:41.265Z,100.00
2023-03-29T23:32:08.834Z,100.00
2023-03-29T23:34:36.109Z,100.00
2023-03-29T23:37:03.637Z,100.00
2023-03-29T23:39:32.057Z,100.00
2023-03-29T23:41:59.675Z,100.00
2023-03-29T23:44:27.327Z,100.00
2023-03-29T23:46:55.126Z,100.00
2023-03-29T23:49:23.332Z,100.00
2023-03-29T23:51:51.085Z,100.00
2023-03-29T23:54:18.690Z,100.00
2023-03-29T23:56:46.116Z,100.00
2023-03-29T23:59:13.324Z,100.00
